sensor_id;sensor_type;location;lat;lon;timestamp;P1;durP1;ratioP1;P2;durP2;ratioP2
8413;SDS011;4244;48.684;9.028;2023-08-12T00:01:48;16.20;;;14.70;;
8413;SDS011;4244;48.684;9.028;2023-08-12T00:04:14;15.37;;;13.77;;
8413;SDS011;4244;48.684;9.028;2023-08-12T00:06:40;14.17;;;11.87;;
8413;SDS011;4244;48.684;9.028;2023-08-12T00:09:06;15.60;;;14.20;;
8413;SDS011;4244;48.684;9.028;2023-08-12T00:11:32;13.80;;;12.60;;
8413;SDS011;4244;48.684;9.028;2023-08-12T00:13:59;15.40;;;13.90;;
8413;SDS011;4244;48.684;9.028;2023-08-12T00:16:25;13.90;;;12.60;;
8413;SDS011;4244;48.684;9.028;2023-08-12T00:18:51;12.97;;;11.77;;
8413;SDS011;4244;48.684;9.028;2023-08-12T00:21:16;11.67;;;10.57;;
8413;SDS011;4244;48.684;9.028;2023-08-12T00:23:42;10.70;;;9.70;;
8413;SDS011;4244;48.684;9.028;2023-08-12T00:26:09;10.87;;;9.90;;
8413;SDS011;4244;48.684;9.028;2023-08-12T00:28:35;10.50;;;9.47;;
8413;SDS011;4244;48.684;9.028;2023-08-12T00:31:01;9.93;;;9.03;;
8413;SDS011;4244;48.684;9.028;2023-08-12T00:33:28;9.50;;;8.60;;
8413;SDS011;4244;48.684;9.028;2023-08-12T00:35:53;10.40;;;9.50;;
8413;SDS011;4244;48.684;9.028;2023-08-12T00:38:19;11.03;;;9.83;;
8413;SDS011;4244;48.684;9.028;2023-08-12T00:40:45;12.73;;;9.87;;
8413;SDS011;4244;48.684;9.028;2023-08-12T00:43:10;10.27;;;8.70;;
8413;SDS011;4244;48.684;9.028;2023-08-12T00:45:36;9.70;;;8.90;;
8413;SDS011;4244;48.684;9.028;2023-08-12T00:48:03;9.40;;;8.50;;
8413;SDS011;4244;48.684;9.028;2023-08-12T00:50:29;10.40;;;9.30;;
8413;SDS011;4244;48.684;9.028;2023-08-12T00:52:54;10.30;;;9.30;;
8413;SDS011;4244;48.684;9.028;2023-08-12T00:55:20;9.60;;;8.80;;
8413;SDS011;4244;48.684;9.028;2023-08-12T00:57:46;9.93;;;9.03;;
8413;SDS011;4244;48.684;9.028;2023-08-12T01:00:12;9.63;;;8.73;;
8413;SDS011;4244;48.684;9.028;2023-08-12T01:02:38;10.43;;;9.30;;
8413;SDS011;4244;48.684;9.028;2023-08-12T01:05:04;9.27;;;8.37;;
8413;SDS011;4244;48.684;9.028;2023-08-12T01:07:30;9.83;;;8.93;;
8413;SDS011;4244;48.684;9.028;2023-08-12T01:09:56;9.57;;;8.77;;
8413;SDS011;4244;48.684;9.028;2023-08-12T01:15:22;9.80;;;9.00;;
8413;SDS011;4244;48.684;9.028;2023-08-12T01:17:50;9.00;;;8.30;;
8413;SDS011;4244;48.684;9.028;2023-08-12T01:20:22;10.00;;;9.10;;
8413;SDS011;4244;48.684;9.028;2023-08-12T01:23:24;9.97;;;8.83;;
8413;SDS011;4244;48.684;9.028;2023-08-12T01:25:45;10.03;;;9.23;;
8413;SDS011;4244;48.684;9.028;2023-08-12T01:28:10;9.97;;;9.17;;
8413;SDS011;4244;48.684;9.028;2023-08-12T01:30:39;10.10;;;8.73;;
8413;SDS011;4244;48.684;9.028;2023-08-12T01:33:21;10.70;;;9.70;;
8413;SDS011;4244;48.684;9.028;2023-08-12T01:35:54;9.60;;;8.60;;
8413;SDS011;4244;48.684;9.028;2023-08-12T01:38:21;10.00;;;9.20;;
8413;SDS011;4244;48.684;9.028;2023-08-12T01:40:49;9.80;;;9.00;;
8413;SDS011;4244;48.684;9.028;2023-08-12T01:43:16;9.97;;;9.17;;
8413;SDS011;4244;48.684;9.028;2023-08-12T01:45:41;10.70;;;9.80;;
8413;SDS011;4244;48.684;9.028;2023-08-12T01:48:08;10.70;;;9.80;;
8413;SDS011;4244;48.684;9.028;2023-08-12T01:50:34;9.37;;;8.67;;
8413;SDS011;4244;48.684;9.028;2023-08-12T01:53:00;9.80;;;9.00;;
8413;SDS011;4244;48.684;9.028;2023-08-12T01:55:25;9.30;;;8.50;;
8413;SDS011;4244;48.684;9.028;2023-08-12T01:57:51;10.60;;;9.50;;
8413;SDS011;4244;48.684;9.028;2023-08-12T02:00:17;10.10;;;9.20;;
8413;SDS011;4244;48.684;9.028;2023-08-12T02:02:43;9.37;;;8.60;;
8413;SDS011;4244;48.684;9.028;2023-08-12T02:05:11;10.90;;;9.80;;
8413;SDS011;4244;48.684;9.028;2023-08-12T02:07:38;10.00;;;9.10;;
8413;SDS011;4244;48.684;9.028;2023-08-12T02:10:04;10.73;;;9.80;;
8413;SDS011;4244;48.684;9.028;2023-08-12T02:12:29;10.47;;;9.57;;
8413;SDS011;4244;48.684;9.028;2023-08-12T02:14:55;9.93;;;9.03;;
8413;SDS011;4244;48.684;9.028;2023-08-12T02:17:21;10.50;;;9.60;;
8413;SDS011;4244;48.684;9.028;2023-08-12T02:19:46;9.27;;;8.47;;
8413;SDS011;4244;48.684;9.028;2023-08-12T02:22:12;9.27;;;8.47;;
8413;SDS011;4244;48.684;9.028;2023-08-12T02:24:37;10.70;;;9.80;;
8413;SDS011;4244;48.684;9.028;2023-08-12T02:27:03;8.90;;;8.10;;
8413;SDS011;4244;48.684;9.028;2023-08-12T02:29:29;9.37;;;8.57;;
8413;SDS011;4244;48.684;9.028;2023-08-12T02:31:54;9.53;;;8.63;;
8413;SDS011;4244;48.684;9.028;2023-08-12T02:34:20;8.30;;;7.53;;
8413;SDS011;4244;48.684;9.028;2023-08-12T02:36:46;8.50;;;7.80;;
8413;SDS011;4244;48.684;9.028;2023-08-12T02:39:11;10.90;;;9.10;;
8413;SDS011;4244;48.684;9.028;2023-08-12T02:41:37;9.00;;;8.20;;
8413;SDS011;4244;48.684;9.028;2023-08-12T02:44:03;9.47;;;8.70;;
8413;SDS011;4244;48.684;9.028;2023-08-12T02:46:28;10.10;;;9.20;;
8413;SDS011;4244;48.684;9.028;2023-08-12T02:48:54;8.70;;;7.93;;
8413;SDS011;4244;48.684;9.028;2023-08-12T02:51:20;7.97;;;7.30;;
8413;SDS011;4244;48.684;9.028;2023-08-12T02:53:45;9.17;;;8.30;;
8413;SDS011;4244;48.684;9.028;2023-08-12T02:56:11;9.03;;;8.23;;
8413;SDS011;4244;48.684;9.028;2023-08-12T02:58:36;9.20;;;8.37;;
8413;SDS011;4244;48.684;9.028;2023-08-12T03:01:02;8.43;;;7.73;;
8413;SDS011;4244;48.684;9.028;2023-08-12T03:03:29;9.33;;;8.57;;
8413;SDS011;4244;48.684;9.028;2023-08-12T03:05:54;10.13;;;9.27;;
8413;SDS011;4244;48.684;9.028;2023-08-12T03:08:20;9.40;;;8.63;;
8413;SDS011;4244;48.684;9.028;2023-08-12T03:10:46;9.80;;;9.00;;
8413;SDS011;4244;48.684;9.028;2023-08-12T03:13:11;8.80;;;8.00;;
8413;SDS011;4244;48.684;9.028;2023-08-12T03:15:40;8.50;;;7.73;;
8413;SDS011;4244;48.684;9.028;2023-08-12T03:18:06;9.13;;;8.43;;
8413;SDS011;4244;48.684;9.028;2023-08-12T03:20:32;9.50;;;8.50;;
8413;SDS011;4244;48.684;9.028;2023-08-12T03:22:58;9.67;;;8.87;;
8413;SDS011;4244;48.684;9.028;2023-08-12T03:25:25;8.53;;;7.83;;
8413;SDS011;4244;48.684;9.028;2023-08-12T03:27:50;9.33;;;8.33;;
8413;SDS011;4244;48.684;9.028;2023-08-12T03:30:16;9.03;;;8.23;;
8413;SDS011;4244;48.684;9.028;2023-08-12T03:32:42;8.10;;;7.50;;
8413;SDS011;4244;48.684;9.028;2023-08-12T03:35:07;7.93;;;7.23;;
8413;SDS011;4244;48.684;9.028;2023-08-12T03:37:34;8.57;;;7.83;;
8413;SDS011;4244;48.684;9.028;2023-08-12T03:39:59;8.87;;;8.17;;
8413;SDS011;4244;48.684;9.028;2023-08-12T03:42:25;8.27;;;7.57;;
8413;SDS011;4244;48.684;9.028;2023-08-12T03:44:51;8.70;;;7.80;;
8413;SDS011;4244;48.684;9.028;2023-08-12T03:47:16;8.27;;;7.47;;
8413;SDS011;4244;48.684;9.028;2023-08-12T03:49:46;8.17;;;7.37;;
8413;SDS011;4244;48.684;9.028;2023-08-12T03:52:12;7.77;;;7.17;;
8413;SDS011;4244;48.684;9.028;2023-08-12T03:54:38;7.93;;;7.23;;
8413;SDS011;4244;48.684;9.028;2023-08-12T03:57:03;7.70;;;7.13;;
8413;SDS011;4244;48.684;9.028;2023-08-12T03:59:29;8.57;;;7.33;;
8413;SDS011;4244;48.684;9.028;2023-08-12T04:01:55;8.00;;;7.30;;
8413;SDS011;4244;48.684;9.028;2023-08-12T04:04:21;7.90;;;7.20;;
8413;SDS011;4244;48.684;9.028;2023-08-12T04:06:46;8.03;;;7.30;;
8413;SDS011;4244;48.684;9.028;2023-08-12T04:09:16;7.23;;;6.73;;
8413;SDS011;4244;48.684;9.028;2023-08-12T04:11:45;6.53;;;6.03;;
8413;SDS011;4244;48.684;9.028;2023-08-12T04:14:11;7.27;;;6.67;;
8413;SDS011;4244;48.684;9.028;2023-08-12T04:16:38;7.30;;;6.70;;
8413;SDS011;4244;48.684;9.028;2023-08-12T04:19:03;7.90;;;7.10;;
8413;SDS011;4244;48.684;9.028;2023-08-12T04:21:29;8.00;;;7.20;;
8413;SDS011;4244;48.684;9.028;2023-08-12T04:23:55;8.20;;;7.50;;
8413;SDS011;4244;48.684;9.028;2023-08-12T04:26:20;7.43;;;6.83;;
8413;SDS011;4244;48.684;9.028;2023-08-12T04:28:46;7.20;;;6.70;;
8413;SDS011;4244;48.684;9.028;2023-08-12T04:31:12;7.93;;;7.23;;
8413;SDS011;4244;48.684;9.028;2023-08-12T04:33:37;8.77;;;7.97;;
8413;SDS011;4244;48.684;9.028;2023-08-12T04:36:03;8.70;;;7.93;;
8413;SDS011;4244;48.684;9.028;2023-08-12T04:38:29;8.00;;;7.30;;
8413;SDS011;4244;48.684;9.028;2023-08-12T04:40:56;7.83;;;7.03;;
8413;SDS011;4244;48.684;9.028;2023-08-12T04:43:22;7.07;;;6.57;;
8413;SDS011;4244;48.684;9.028;2023-08-12T04:45:48;9.50;;;7.17;;
8413;SDS011;4244;48.684;9.028;2023-08-12T04:48:14;10.93;;;8.23;;
8413;SDS011;4244;48.684;9.028;2023-08-12T04:50:39;8.43;;;7.73;;
8413;SDS011;4244;48.684;9.028;2023-08-12T04:53:06;7.60;;;6.87;;
8413;SDS011;4244;48.684;9.028;2023-08-12T04:55:32;8.50;;;7.63;;
8413;SDS011;4244;48.684;9.028;2023-08-12T04:57:58;8.03;;;7.33;;
8413;SDS011;4244;48.684;9.028;2023-08-12T05:00:23;8.23;;;7.63;;
8413;SDS011;4244;48.684;9.028;2023-08-12T05:02:49;8.57;;;7.67;;
8413;SDS011;4244;48.684;9.028;2023-08-12T05:05:15;8.27;;;7.50;;
8413;SDS011;4244;48.684;9.028;2023-08-12T05:07:40;8.00;;;7.37;;
8413;SDS011;4244;48.684;9.028;2023-08-12T05:10:06;8.33;;;7.63;;
8413;SDS011;4244;48.684;9.028;2023-08-12T05:12:32;9.17;;;8.37;;
8413;SDS011;4244;48.684;9.028;2023-08-12T05:14:57;9.37;;;8.07;;
8413;SDS011;4244;48.684;9.028;2023-08-12T05:17:23;8.47;;;7.77;;
8413;SDS011;4244;48.684;9.028;2023-08-12T05:19:49;9.80;;;8.90;;
8413;SDS011;4244;48.684;9.028;2023-08-12T05:22:15;11.03;;;9.67;;
8413;SDS011;4244;48.684;9.028;2023-08-12T05:24:41;9.90;;;9.00;;
8413;SDS011;4244;48.684;9.028;2023-08-12T05:27:06;10.10;;;9.10;;
8413;SDS011;4244;48.684;9.028;2023-08-12T05:29:32;9.77;;;8.83;;
8413;SDS011;4244;48.684;9.028;2023-08-12T05:31:58;8.70;;;8.00;;
8413;SDS011;4244;48.684;9.028;2023-08-12T05:34:24;8.20;;;7.60;;
8413;SDS011;4244;48.684;9.028;2023-08-12T05:36:49;8.80;;;8.00;;
8413;SDS011;4244;48.684;9.028;2023-08-12T05:39:15;9.17;;;8.37;;
8413;SDS011;4244;48.684;9.028;2023-08-12T05:41:41;9.53;;;8.53;;
8413;SDS011;4244;48.684;9.028;2023-08-12T05:44:06;9.50;;;8.60;;
8413;SDS011;4244;48.684;9.028;2023-08-12T05:46:32;9.50;;;8.80;;
8413;SDS011;4244;48.684;9.028;2023-08-12T05:48:58;8.87;;;7.97;;
8413;SDS011;4244;48.684;9.028;2023-08-12T05:51:23;8.27;;;7.57;;
8413;SDS011;4244;48.684;9.028;2023-08-12T05:53:49;8.90;;;8.20;;
8413;SDS011;4244;48.684;9.028;2023-08-12T05:56:15;10.50;;;8.77;;
8413;SDS011;4244;48.684;9.028;2023-08-12T05:58:40;8.73;;;8.00;;
8413;SDS011;4244;48.684;9.028;2023-08-12T06:01:06;8.60;;;7.80;;
8413;SDS011;4244;48.684;9.028;2023-08-12T06:03:31;8.27;;;7.57;;
8413;SDS011;4244;48.684;9.028;2023-08-12T06:05:57;9.47;;;8.67;;
8413;SDS011;4244;48.684;9.028;2023-08-12T06:08:23;8.73;;;8.00;;
8413;SDS011;4244;48.684;9.028;2023-08-12T06:10:50;8.93;;;8.13;;
8413;SDS011;4244;48.684;9.028;2023-08-12T06:13:16;8.10;;;7.50;;
8413;SDS011;4244;48.684;9.028;2023-08-12T06:15:42;8.90;;;8.10;;
8413;SDS011;4244;48.684;9.028;2023-08-12T06:18:09;8.80;;;8.03;;
8413;SDS011;4244;48.684;9.028;2023-08-12T06:20:35;9.00;;;8.10;;
8413;SDS011;4244;48.684;9.028;2023-08-12T06:23:00;7.57;;;6.87;;
8413;SDS011;4244;48.684;9.028;2023-08-12T06:25:26;7.80;;;7.10;;
8413;SDS011;4244;48.684;9.028;2023-08-12T06:27:51;7.30;;;6.70;;
8413;SDS011;4244;48.684;9.028;2023-08-12T06:30:17;8.57;;;7.77;;
8413;SDS011;4244;48.684;9.028;2023-08-12T06:32:43;7.20;;;6.70;;
8413;SDS011;4244;48.684;9.028;2023-08-12T06:35:08;7.83;;;7.17;;
8413;SDS011;4244;48.684;9.028;2023-08-12T06:37:34;8.53;;;7.63;;
8413;SDS011;4244;48.684;9.028;2023-08-12T06:40:00;8.40;;;7.70;;
8413;SDS011;4244;48.684;9.028;2023-08-12T06:42:26;8.10;;;7.50;;
8413;SDS011;4244;48.684;9.028;2023-08-12T06:44:55;7.60;;;6.90;;
8413;SDS011;4244;48.684;9.028;2023-08-12T06:47:22;8.43;;;7.70;;
8413;SDS011;4244;48.684;9.028;2023-08-12T06:49:47;8.57;;;7.87;;
8413;SDS011;4244;48.684;9.028;2023-08-12T06:52:13;8.27;;;7.63;;
8413;SDS011;4244;48.684;9.028;2023-08-12T06:54:39;7.40;;;6.70;;
8413;SDS011;4244;48.684;9.028;2023-08-12T06:57:04;8.10;;;7.40;;
8413;SDS011;4244;48.684;9.028;2023-08-12T06:59:30;7.50;;;6.80;;
8413;SDS011;4244;48.684;9.028;2023-08-12T07:01:56;6.93;;;6.40;;
8413;SDS011;4244;48.684;9.028;2023-08-12T07:04:21;8.10;;;7.40;;
8413;SDS011;4244;48.684;9.028;2023-08-12T07:06:47;7.30;;;6.70;;
8413;SDS011;4244;48.684;9.028;2023-08-12T07:09:13;7.57;;;6.90;;
8413;SDS011;4244;48.684;9.028;2023-08-12T07:11:39;7.10;;;6.50;;
8413;SDS011;4244;48.684;9.028;2023-08-12T07:14:05;6.90;;;6.30;;
8413;SDS011;4244;48.684;9.028;2023-08-12T07:16:31;7.43;;;6.77;;
8413;SDS011;4244;48.684;9.028;2023-08-12T07:18:56;7.20;;;6.50;;
8413;SDS011;4244;48.684;9.028;2023-08-12T07:21:22;7.60;;;6.90;;
8413;SDS011;4244;48.684;9.028;2023-08-12T07:23:47;7.47;;;6.83;;
8413;SDS011;4244;48.684;9.028;2023-08-12T07:26:13;7.83;;;7.13;;
8413;SDS011;4244;48.684;9.028;2023-08-12T07:28:39;7.13;;;6.50;;
8413;SDS011;4244;48.684;9.028;2023-08-12T07:31:06;7.97;;;7.30;;
8413;SDS011;4244;48.684;9.028;2023-08-12T07:33:33;8.33;;;6.90;;
8413;SDS011;4244;48.684;9.028;2023-08-12T07:35:59;6.70;;;6.20;;
8413;SDS011;4244;48.684;9.028;2023-08-12T07:38:25;6.10;;;5.60;;
8413;SDS011;4244;48.684;9.028;2023-08-12T07:40:51;6.47;;;5.97;;
8413;SDS011;4244;48.684;9.028;2023-08-12T07:43:20;6.87;;;6.20;;
8413;SDS011;4244;48.684;9.028;2023-08-12T07:45:50;5.97;;;5.47;;
8413;SDS011;4244;48.684;9.028;2023-08-12T07:48:17;6.20;;;5.70;;
8413;SDS011;4244;48.684;9.028;2023-08-12T07:50:43;6.50;;;6.00;;
8413;SDS011;4244;48.684;9.028;2023-08-12T07:53:09;8.80;;;6.20;;
8413;SDS011;4244;48.684;9.028;2023-08-12T07:55:35;6.33;;;5.70;;
8413;SDS011;4244;48.684;9.028;2023-08-12T07:58:00;6.50;;;6.00;;
8413;SDS011;4244;48.684;9.028;2023-08-12T08:00:26;6.10;;;5.60;;
8413;SDS011;4244;48.684;9.028;2023-08-12T08:02:52;6.30;;;5.70;;
8413;SDS011;4244;48.684;9.028;2023-08-12T08:05:17;5.93;;;5.43;;
8413;SDS011;4244;48.684;9.028;2023-08-12T08:07:43;8.37;;;6.13;;
8413;SDS011;4244;48.684;9.028;2023-08-12T08:10:09;6.90;;;6.30;;
8413;SDS011;4244;48.684;9.028;2023-08-12T08:12:35;6.70;;;5.70;;
8413;SDS011;4244;48.684;9.028;2023-08-12T08:15:01;6.00;;;5.50;;
8413;SDS011;4244;48.684;9.028;2023-08-12T08:17:28;6.90;;;6.23;;
8413;SDS011;4244;48.684;9.028;2023-08-12T08:19:54;7.33;;;6.00;;
8413;SDS011;4244;48.684;9.028;2023-08-12T08:22:19;6.23;;;5.63;;
8413;SDS011;4244;48.684;9.028;2023-08-12T08:24:45;6.60;;;6.03;;
8413;SDS011;4244;48.684;9.028;2023-08-12T08:27:10;5.33;;;4.93;;
8413;SDS011;4244;48.684;9.028;2023-08-12T08:29:36;5.77;;;5.27;;
8413;SDS011;4244;48.684;9.028;2023-08-12T08:32:02;5.00;;;4.60;;
8413;SDS011;4244;48.684;9.028;2023-08-12T08:34:27;5.50;;;5.10;;
8413;SDS011;4244;48.684;9.028;2023-08-12T08:36:53;5.83;;;5.30;;
8413;SDS011;4244;48.684;9.028;2023-08-12T08:39:19;6.47;;;5.87;;
8413;SDS011;4244;48.684;9.028;2023-08-12T08:41:46;6.20;;;5.60;;
8413;SDS011;4244;48.684;9.028;2023-08-12T08:44:13;5.30;;;4.90;;
8413;SDS011;4244;48.684;9.028;2023-08-12T08:46:39;6.20;;;5.67;;
8413;SDS011;4244;48.684;9.028;2023-08-12T08:49:05;6.63;;;5.70;;
8413;SDS011;4244;48.684;9.028;2023-08-12T08:51:31;5.40;;;4.90;;
8413;SDS011;4244;48.684;9.028;2023-08-12T08:53:57;5.50;;;5.00;;
8413;SDS011;4244;48.684;9.028;2023-08-12T08:56:23;5.03;;;4.63;;
8413;SDS011;4244;48.684;9.028;2023-08-12T08:58:49;6.13;;;4.50;;
8413;SDS011;4244;48.684;9.028;2023-08-12T09:01:15;6.20;;;5.70;;
8413;SDS011;4244;48.684;9.028;2023-08-12T09:03:43;4.63;;;4.30;;
8413;SDS011;4244;48.684;9.028;2023-08-12T09:06:09;5.13;;;4.80;;
8413;SDS011;4244;48.684;9.028;2023-08-12T09:08:35;5.13;;;4.73;;
8413;SDS011;4244;48.684;9.028;2023-08-12T09:11:02;5.20;;;4.80;;
8413;SDS011;4244;48.684;9.028;2023-08-12T09:13:28;5.10;;;4.60;;
8413;SDS011;4244;48.684;9.028;2023-08-12T09:15:54;5.37;;;4.87;;
8413;SDS011;4244;48.684;9.028;2023-08-12T09:18:20;5.47;;;4.97;;
8413;SDS011;4244;48.684;9.028;2023-08-12T09:20:50;6.27;;;5.67;;
8413;SDS011;4244;48.684;9.028;2023-08-12T09:23:16;5.90;;;5.40;;
8413;SDS011;4244;48.684;9.028;2023-08-12T09:25:43;5.33;;;4.83;;
8413;SDS011;4244;48.684;9.028;2023-08-12T09:28:09;5.80;;;5.20;;
8413;SDS011;4244;48.684;9.028;2023-08-12T09:30:35;5.47;;;4.97;;
8413;SDS011;4244;48.684;9.028;2023-08-12T09:33:02;6.27;;;5.60;;
8413;SDS011;4244;48.684;9.028;2023-08-12T09:35:41;5.10;;;4.70;;
8413;SDS011;4244;48.684;9.028;2023-08-12T09:38:09;5.10;;;4.73;;
8413;SDS011;4244;48.684;9.028;2023-08-12T09:40:36;6.33;;;5.27;;
8413;SDS011;4244;48.684;9.028;2023-08-12T09:43:02;6.17;;;5.67;;
8413;SDS011;4244;48.684;9.028;2023-08-12T09:45:29;6.07;;;5.43;;
8413;SDS011;4244;48.684;9.028;2023-08-12T09:47:55;6.50;;;5.27;;
8413;SDS011;4244;48.684;9.028;2023-08-12T09:50:24;5.17;;;4.77;;
8413;SDS011;4244;48.684;9.028;2023-08-12T09:52:52;6.07;;;5.57;;
8413;SDS011;4244;48.684;9.028;2023-08-12T09:55:19;5.90;;;5.30;;
8413;SDS011;4244;48.684;9.028;2023-08-12T09:57:47;7.17;;;5.60;;
8413;SDS011;4244;48.684;9.028;2023-08-12T10:00:15;6.07;;;5.60;;
8413;SDS011;4244;48.684;9.028;2023-08-12T10:02:43;7.43;;;5.80;;
8413;SDS011;4244;48.684;9.028;2023-08-12T10:05:11;7.00;;;6.30;;
8413;SDS011;4244;48.684;9.028;2023-08-12T10:07:37;6.57;;;5.97;;
8413;SDS011;4244;48.684;9.028;2023-08-12T10:10:05;6.23;;;5.63;;
8413;SDS011;4244;48.684;9.028;2023-08-12T10:12:32;7.40;;;6.27;;
8413;SDS011;4244;48.684;9.028;2023-08-12T10:14:58;6.17;;;5.57;;
8413;SDS011;4244;48.684;9.028;2023-08-12T10:17:25;5.87;;;5.30;;
8413;SDS011;4244;48.684;9.028;2023-08-12T10:19:54;6.10;;;5.60;;
8413;SDS011;4244;48.684;9.028;2023-08-12T10:22:21;5.87;;;5.47;;
8413;SDS011;4244;48.684;9.028;2023-08-12T10:24:46;6.33;;;5.73;;
8413;SDS011;4244;48.684;9.028;2023-08-12T10:27:13;6.10;;;5.60;;
8413;SDS011;4244;48.684;9.028;2023-08-12T10:29:41;6.60;;;5.30;;
8413;SDS011;4244;48.684;9.028;2023-08-12T10:32:08;6.20;;;5.70;;
8413;SDS011;4244;48.684;9.028;2023-08-12T10:34:33;7.00;;;5.00;;
8413;SDS011;4244;48.684;9.028;2023-08-12T10:37:02;5.37;;;4.93;;
8413;SDS011;4244;48.684;9.028;2023-08-12T10:39:33;5.27;;;4.87;;
8413;SDS011;4244;48.684;9.028;2023-08-12T10:41:59;5.13;;;4.70;;
8413;SDS011;4244;48.684;9.028;2023-08-12T10:44:38;5.03;;;4.53;;
8413;SDS011;4244;48.684;9.028;2023-08-12T10:47:16;5.13;;;4.73;;
8413;SDS011;4244;48.684;9.028;2023-08-12T10:49:43;5.30;;;4.90;;
8413;SDS011;4244;48.684;9.028;2023-08-12T10:52:25;5.40;;;5.00;;
8413;SDS011;4244;48.684;9.028;2023-08-12T10:54:59;4.93;;;4.53;;
8413;SDS011;4244;48.684;9.028;2023-08-12T10:57:40;5.57;;;5.00;;
8413;SDS011;4244;48.684;9.028;2023-08-12T11:00:10;5.50;;;4.43;;
8413;SDS011;4244;48.684;9.028;2023-08-12T11:02:36;6.23;;;5.17;;
8413;SDS011;4244;48.684;9.028;2023-08-12T11:05:08;6.23;;;5.73;;
8413;SDS011;4244;48.684;9.028;2023-08-12T11:07:41;5.60;;;5.10;;
8413;SDS011;4244;48.684;9.028;2023-08-12T11:10:12;5.20;;;4.80;;
8413;SDS011;4244;48.684;9.028;2023-08-12T11:12:47;5.90;;;5.40;;
8413;SDS011;4244;48.684;9.028;2023-08-12T11:15:20;5.83;;;5.33;;
8413;SDS011;4244;48.684;9.028;2023-08-12T11:17:54;5.73;;;5.23;;
8413;SDS011;4244;48.684;9.028;2023-08-12T11:20:19;8.10;;;5.73;;
8413;SDS011;4244;48.684;9.028;2023-08-12T11:22:46;5.73;;;5.20;;
8413;SDS011;4244;48.684;9.028;2023-08-12T11:25:12;6.60;;;5.90;;
8413;SDS011;4244;48.684;9.028;2023-08-12T11:27:39;6.90;;;5.90;;
8413;SDS011;4244;48.684;9.028;2023-08-12T11:30:10;6.40;;;5.80;;
8413;SDS011;4244;48.684;9.028;2023-08-12T11:32:39;7.10;;;6.50;;
8413;SDS011;4244;48.684;9.028;2023-08-12T11:35:05;7.10;;;5.33;;
8413;SDS011;4244;48.684;9.028;2023-08-12T11:37:32;5.40;;;4.90;;
8413;SDS011;4244;48.684;9.028;2023-08-12T11:39:58;6.20;;;5.70;;
8413;SDS011;4244;48.684;9.028;2023-08-12T11:42:23;5.83;;;5.33;;
8413;SDS011;4244;48.684;9.028;2023-08-12T11:44:49;6.10;;;5.60;;
8413;SDS011;4244;48.684;9.028;2023-08-12T11:47:15;5.60;;;5.10;;
8413;SDS011;4244;48.684;9.028;2023-08-12T11:49:41;5.83;;;5.33;;
8413;SDS011;4244;48.684;9.028;2023-08-12T11:52:08;6.40;;;5.80;;
8413;SDS011;4244;48.684;9.028;2023-08-12T11:54:34;6.30;;;5.70;;
8413;SDS011;4244;48.684;9.028;2023-08-12T11:57:00;5.80;;;5.23;;
8413;SDS011;4244;48.684;9.028;2023-08-12T11:59:26;6.00;;;5.50;;
8413;SDS011;4244;48.684;9.028;2023-08-12T12:01:51;6.47;;;5.97;;
8413;SDS011;4244;48.684;9.028;2023-08-12T12:04:17;5.73;;;5.30;;
8413;SDS011;4244;48.684;9.028;2023-08-12T12:06:45;5.60;;;5.10;;
8413;SDS011;4244;48.684;9.028;2023-08-12T12:09:11;5.57;;;4.37;;
8413;SDS011;4244;48.684;9.028;2023-08-12T12:11:38;5.70;;;5.10;;
8413;SDS011;4244;48.684;9.028;2023-08-12T12:14:06;5.17;;;4.43;;
8413;SDS011;4244;48.684;9.028;2023-08-12T12:16:37;7.33;;;4.83;;
8413;SDS011;4244;48.684;9.028;2023-08-12T12:19:04;6.00;;;4.90;;
8413;SDS011;4244;48.684;9.028;2023-08-12T12:21:32;5.93;;;4.60;;
8413;SDS011;4244;48.684;9.028;2023-08-12T12:24:04;6.03;;;4.40;;
8413;SDS011;4244;48.684;9.028;2023-08-12T12:26:30;6.67;;;4.83;;
8413;SDS011;4244;48.684;9.028;2023-08-12T12:28:57;5.97;;;5.37;;
8413;SDS011;4244;48.684;9.028;2023-08-12T12:31:23;6.17;;;5.67;;
8413;SDS011;4244;48.684;9.028;2023-08-12T12:33:48;5.03;;;4.53;;
8413;SDS011;4244;48.684;9.028;2023-08-12T12:36:14;8.83;;;5.10;;
8413;SDS011;4244;48.684;9.028;2023-08-12T12:38:39;4.40;;;4.00;;
8413;SDS011;4244;48.684;9.028;2023-08-12T12:41:05;4.53;;;4.10;;
8413;SDS011;4244;48.684;9.028;2023-08-12T12:43:31;5.33;;;4.90;;
8413;SDS011;4244;48.684;9.028;2023-08-12T12:45:56;8.40;;;4.90;;
8413;SDS011;4244;48.684;9.028;2023-08-12T12:48:22;5.30;;;4.80;;
8413;SDS011;4244;48.684;9.028;2023-08-12T12:50:47;5.77;;;5.10;;
8413;SDS011;4244;48.684;9.028;2023-08-12T12:53:13;6.97;;;4.50;;
8413;SDS011;4244;48.684;9.028;2023-08-12T12:55:39;5.50;;;4.23;;
8413;SDS011;4244;48.684;9.028;2023-08-12T12:58:04;5.03;;;4.43;;
8413;SDS011;4244;48.684;9.028;2023-08-12T13:00:30;6.00;;;5.27;;
8413;SDS011;4244;48.684;9.028;2023-08-12T13:02:56;4.53;;;4.13;;
8413;SDS011;4244;48.684;9.028;2023-08-12T13:05:21;7.83;;;5.40;;
8413;SDS011;4244;48.684;9.028;2023-08-12T13:07:47;7.13;;;4.83;;
8413;SDS011;4244;48.684;9.028;2023-08-12T13:10:12;5.40;;;4.90;;
8413;SDS011;4244;48.684;9.028;2023-08-12T13:12:38;5.03;;;4.60;;
8413;SDS011;4244;48.684;9.028;2023-08-12T13:15:04;6.00;;;5.50;;
8413;SDS011;4244;48.684;9.028;2023-08-12T13:17:31;7.20;;;6.03;;
8413;SDS011;4244;48.684;9.028;2023-08-12T13:19:57;6.53;;;5.90;;
8413;SDS011;4244;48.684;9.028;2023-08-12T13:22:22;6.33;;;5.43;;
8413;SDS011;4244;48.684;9.028;2023-08-12T13:24:48;6.97;;;5.63;;
8413;SDS011;4244;48.684;9.028;2023-08-12T13:27:13;7.57;;;6.13;;
8413;SDS011;4244;48.684;9.028;2023-08-12T13:29:39;6.93;;;5.90;;
8413;SDS011;4244;48.684;9.028;2023-08-12T13:32:05;6.87;;;6.13;;
8413;SDS011;4244;48.684;9.028;2023-08-12T13:34:30;6.00;;;5.40;;
8413;SDS011;4244;48.684;9.028;2023-08-12T13:36:56;6.07;;;5.47;;
8413;SDS011;4244;48.684;9.028;2023-08-12T13:39:22;6.53;;;5.30;;
8413;SDS011;4244;48.684;9.028;2023-08-12T13:41:47;6.43;;;5.00;;
8413;SDS011;4244;48.684;9.028;2023-08-12T13:44:13;5.20;;;4.70;;
8413;SDS011;4244;48.684;9.028;2023-08-12T13:46:39;5.40;;;4.53;;
8413;SDS011;4244;48.684;9.028;2023-08-12T13:49:04;5.47;;;4.73;;
8413;SDS011;4244;48.684;9.028;2023-08-12T13:51:31;6.70;;;4.33;;
8413;SDS011;4244;48.684;9.028;2023-08-12T13:53:56;4.33;;;3.97;;
8413;SDS011;4244;48.684;9.028;2023-08-12T13:56:22;4.27;;;3.87;;
8413;SDS011;4244;48.684;9.028;2023-08-12T13:58:48;5.00;;;3.77;;
8413;SDS011;4244;48.684;9.028;2023-08-12T14:01:13;4.30;;;3.60;;
8413;SDS011;4244;48.684;9.028;2023-08-12T14:03:39;4.30;;;3.90;;
8413;SDS011;4244;48.684;9.028;2023-08-12T14:06:04;3.30;;;3.00;;
8413;SDS011;4244;48.684;9.028;2023-08-12T14:08:30;3.87;;;3.47;;
8413;SDS011;4244;48.684;9.028;2023-08-12T14:10:56;3.70;;;3.40;;
8413;SDS011;4244;48.684;9.028;2023-08-12T14:13:21;4.70;;;4.17;;
8413;SDS011;4244;48.684;9.028;2023-08-12T14:15:47;3.40;;;3.10;;
8413;SDS011;4244;48.684;9.028;2023-08-12T14:18:13;3.97;;;3.60;;
8413;SDS011;4244;48.684;9.028;2023-08-12T14:20:38;3.73;;;3.13;;
8413;SDS011;4244;48.684;9.028;2023-08-12T14:23:04;3.53;;;3.23;;
8413;SDS011;4244;48.684;9.028;2023-08-12T14:25:29;4.00;;;3.70;;
8413;SDS011;4244;48.684;9.028;2023-08-12T14:27:55;3.23;;;2.93;;
8413;SDS011;4244;48.684;9.028;2023-08-12T14:30:23;4.00;;;3.10;;
8413;SDS011;4244;48.684;9.028;2023-08-12T14:32:50;3.73;;;3.43;;
8413;SDS011;4244;48.684;9.028;2023-08-12T14:35:15;2.97;;;2.73;;
8413;SDS011;4244;48.684;9.028;2023-08-12T14:37:41;3.70;;;3.40;;
8413;SDS011;4244;48.684;9.028;2023-08-12T14:40:07;3.60;;;3.30;;
8413;SDS011;4244;48.684;9.028;2023-08-12T14:42:34;3.87;;;3.30;;
8413;SDS011;4244;48.684;9.028;2023-08-12T14:44:59;3.37;;;3.07;;
8413;SDS011;4244;48.684;9.028;2023-08-12T14:47:25;4.10;;;3.70;;
8413;SDS011;4244;48.684;9.028;2023-08-12T14:49:51;4.93;;;3.63;;
8413;SDS011;4244;48.684;9.028;2023-08-12T14:52:18;3.50;;;3.20;;
8413;SDS011;4244;48.684;9.028;2023-08-12T14:54:45;3.90;;;3.33;;
8413;SDS011;4244;48.684;9.028;2023-08-12T14:57:11;3.67;;;3.33;;
8413;SDS011;4244;48.684;9.028;2023-08-12T14:59:37;4.83;;;3.27;;
8413;SDS011;4244;48.684;9.028;2023-08-12T15:02:03;3.70;;;3.40;;
8413;SDS011;4244;48.684;9.028;2023-08-12T15:04:29;3.00;;;2.70;;
8413;SDS011;4244;48.684;9.028;2023-08-12T15:06:55;2.97;;;2.67;;
8413;SDS011;4244;48.684;9.028;2023-08-12T15:09:20;8.40;;;3.63;;
8413;SDS011;4244;48.684;9.028;2023-08-12T15:11:46;3.37;;;3.07;;